Terminal Aerodrome Forecast
Issued by NWS Grand Forks, ND

Home | Current Version | Previous Version | Graphics & Text | Print | Product List | Glossary On
Versions: 1 2 3 4 5 6 7 8 9 10 11 12 13 14 15 16 17 18 19 20 21
296
FTUS43 KFGF 030523
TAFFAR
TAF
KFAR 030523Z 0306/0406 19004KT P6SM OVC025
     FM031800 16011KT P6SM BKN035
     FM032300 16013KT P6SM BKN015=

USA.gov is the U.S. government's official web portal to all federal, state and local government web resources and services.